Terminal Aerodrome Forecast
Issued by NWS Twin Cities, MN

Home | Current Version | Previous Version | Text Only | Print | Product List | Glossary Off
Versions: 1 2 3 4 5 6 7 8 9 10 11 12 13 14 15 16 17 18 19 20 21 22 23 24 25 26

927
FTUS43 KMPX 282339
TAFMSP
TAF
KMSP 282339Z 2900/3006 05007KT 6SM -RA BR SCT020 OVC035
      TEMPO 2900/2904 4SM -RA BR BKN020
     FM290400 04004KT P6SM OVC025
     FM290800 03003KT P6SM OVC040
     FM291400 05006KT P6SM SCT040 BKN100=

USA.gov is the U.S. government's official web portal to all federal, state and local government web resources and services.